KART/ART METAR and TAF weather

Enter ICAO airport designator
Station Type Date Time Source
KART METAR 2019/04/26 02:56 UTC NOAA

KART 260256Z AUTO 07006KT 10SM OVC110 11/03 A2982 RMK AO2 SLP098 T01060028 58008


Station Type Date Time Source
KART Decoded METAR 2019/04/26 02:56 UTC NOAA

WATERTOWN INTERNATIONAL AIRPORT, NY, United States (KART) 43-59N 076-02W 100M
Apr 25, 2019 - 10:56 PM EDT / 2019.04.26 0256 UTC
Wind: from the ENE (070 degrees) at 7 MPH (6 KT):0
Visibility: 10 mile(s):0
Sky conditions: overcast
Temperature: 51.1 F (10.6 C)
Dew Point: 37.0 F (2.8 C)
Relative Humidity: 58%
Pressure (altimeter): 29.82 in. Hg (1009 hPa)
Pressure tendency: 0.02 inches (0.8 hPa) lower than three hours ago
ob: KART 260256Z AUTO 07006KT 10SM OVC110 11/03 A2982 RMK AO2 SLP098 T01060028 58008
cycle: 3

Station Type Date Time Source
KART TAF 2019/04/26 02:24 UTC NOAA

TAF
AMD KART 260220Z 2602/2624 VRB05KT P6SM OVC080
FM260800 12006KT 6SM -RA BR OVC035
FM260900 12007KT P6SM -RA OVC025
FM261400 14014G22KT 5SM -RA BR OVC020
FM262300 22015G25KT 3SM -RA BR OVC015

Example: see airport list